Time;durP1;ratioP1;P1;durP2;ratioP2;P2;SDS_P1;SDS_P2;PMS_P1;PMS_P2;Temp;Humidity;BMP_temperature;BMP_pressure;BME280_temperature;BME280_humidity;BME280_pressure;Samples;Min_cycle;Max_cycle;Signal;HPM_P1;HPM_P2
2023/09/10 00:01:10;;;;;;;7.82;6.22;;;435.70;2355.20;;;;;;5089316;28;20031;-59
2023/09/10 00:03:37;;;;;;;10.75;7.55;;;435.70;2355.20;;;;;;5089309;28;20676;-61
2023/09/10 00:06:05;;;;;;;11.27;7.18;;;435.60;2355.20;;;;;;5087679;28;20039;-60
2023/09/10 00:08:31;;;;;;;8.40;6.97;;;435.70;2355.20;;;;;;5089127;28;20028;-59
2023/09/10 00:10:57;;;;;;;11.07;7.78;;;435.70;2355.20;;;;;;5089196;28;20101;-59
2023/09/10 00:13:23;;;;;;;10.38;7.40;;;435.70;2355.20;;;;;;5089193;28;20016;-59
2023/09/10 00:15:50;;;;;;;9.10;6.85;;;435.60;2355.20;;;;;;5089118;28;20038;-59
2023/09/10 00:18:16;;;;;;;10.75;6.95;;;435.60;2355.20;;;;;;5088359;28;20539;-60
2023/09/10 00:20:42;;;;;;;10.43;7.30;;;435.60;2355.20;;;;;;5088624;28;20107;-60
2023/09/10 00:23:07;;;;;;;9.30;6.80;;;435.60;2355.20;;;;;;5089118;28;20069;-60
2023/09/10 00:25:34;;;;;;;11.07;7.72;;;435.60;2355.20;;;;;;5088655;28;20086;-60
2023/09/10 00:27:59;;;;;;;8.88;6.80;;;435.60;2355.20;;;;;;5089574;28;20177;-59
2023/09/10 00:30:28;;;;;;;9.45;7.03;;;435.60;2355.20;;;;;;5088438;28;20478;-58
2023/09/10 00:32:54;;;;;;;8.20;6.80;;;435.60;2355.20;;;;;;5088698;28;20492;-58
2023/09/10 00:35:20;;;;;;;8.43;6.78;;;435.60;2355.20;;;;;;5075371;28;20028;-58
2023/09/10 00:37:45;;;;;;;8.63;6.78;;;435.50;2355.20;;;;;;5089254;28;20104;-58
2023/09/10 00:40:12;;;;;;;8.07;6.57;;;435.40;2355.20;;;;;;5088564;28;20099;-59
2023/09/10 00:42:38;;;;;;;10.35;7.18;;;435.40;2355.20;;;;;;5089250;28;20016;-61
2023/09/10 00:45:06;;;;;;;8.95;6.80;;;435.40;2355.20;;;;;;5088626;28;20028;-58
2023/09/10 00:47:33;;;;;;;9.73;6.72;;;435.40;2355.20;;;;;;5088710;28;20470;-59
2023/09/10 00:49:59;;;;;;;9.65;6.47;;;435.40;2355.20;;;;;;5088413;28;20032;-58
2023/09/10 00:52:27;;;;;;;8.57;7.00;;;435.30;2355.20;;;;;;5088519;28;20020;-59
2023/09/10 00:54:53;;;;;;;10.43;7.22;;;435.20;2355.20;;;;;;5088076;28;20036;-59
2023/09/10 00:57:19;;;;;;;10.32;7.45;;;435.20;2355.20;;;;;;5088841;28;20506;-58
2023/09/10 00:59:45;;;;;;;9.38;6.93;;;435.30;2355.20;;;;;;5087940;28;20020;-58
2023/09/10 01:02:14;;;;;;;10.75;6.90;;;435.20;2355.20;;;;;;5088323;28;20486;-59
2023/09/10 01:04:40;;;;;;;11.55;7.55;;;435.20;2355.20;;;;;;5074940;28;20491;-59
2023/09/10 01:07:07;;;;;;;8.75;7.18;;;410.50;2355.20;;;;;;5088603;28;20016;-58
2023/09/10 01:09:32;;;;;;;8.07;6.63;;;410.50;2355.20;;;;;;5088482;28;20047;-59
2023/09/10 01:11:58;;;;;;;10.40;7.38;;;410.40;2355.20;;;;;;5088418;28;20048;-58
2023/09/10 01:14:45;;;;;;;10.88;7.00;;;410.50;2355.20;;;;;;5087896;28;20060;-59
2023/09/10 01:17:11;;;;;;;8.35;7.03;;;410.30;2355.20;;;;;;5088530;28;20103;-59
2023/09/10 01:19:45;;;;;;;8.93;7.22;;;410.30;2355.20;;;;;;5088142;28;20087;-58
2023/09/10 01:22:36;;;;;;;12.82;7.85;;;410.20;2355.20;;;;;;5088080;28;20024;-59
2023/09/10 01:25:02;;;;;;;12.77;6.55;;;410.20;2355.20;;;;;;5067181;28;20028;-59
2023/09/10 01:27:28;;;;;;;8.00;6.25;;;410.20;2355.20;;;;;;5088350;28;20089;-59
2023/09/10 01:29:54;;;;;;;10.63;7.63;;;410.20;2355.20;;;;;;5089899;28;20518;-59
2023/09/10 01:32:30;;;;;;;7.95;7.15;;;410.00;2355.20;;;;;;5091580;28;20112;-59
2023/09/10 01:35:19;;;;;;;12.60;7.25;;;410.10;2355.20;;;;;;5091240;28;20058;-58
2023/09/10 01:38:01;;;;;;;9.55;7.88;;;410.20;2355.20;;;;;;5092261;28;20020;-58
2023/09/10 01:40:34;;;;;;;10.88;7.03;;;410.20;2355.20;;;;;;5091674;28;20059;-58
2023/09/10 01:43:05;;;;;;;7.57;6.78;;;410.10;2355.20;;;;;;5091802;28;20093;-59
2023/09/10 01:45:35;;;;;;;8.38;7.18;;;410.20;2355.20;;;;;;5091461;28;20036;-59
2023/09/10 01:48:02;;;;;;;11.73;6.90;;;410.20;2355.20;;;;;;5091870;28;20048;-59
2023/09/10 01:50:31;;;;;;;7.95;6.60;;;410.20;2355.20;;;;;;5091449;28;20030;-58
2023/09/10 01:52:58;;;;;;;8.52;6.53;;;410.10;2355.20;;;;;;5091421;28;20059;-58
2023/09/10 01:55:25;;;;;;;10.10;6.85;;;410.20;2355.20;;;;;;5085488;28;20044;-58
2023/09/10 01:57:53;;;;;;;8.18;6.65;;;410.20;2355.20;;;;;;5083899;28;20890;-59
2023/09/10 02:00:19;;;;;;;8.02;6.72;;;410.20;2355.20;;;;;;5091513;28;20027;-58
2023/09/10 02:02:45;;;;;;;10.13;7.45;;;410.20;2355.20;;;;;;5090969;28;20024;-58
2023/09/10 02:05:10;;;;;;;7.88;6.45;;;410.10;2355.20;;;;;;5091649;28;20081;-59
2023/09/10 02:07:36;;;;;;;8.30;6.28;;;410.00;2355.20;;;;;;5091578;28;20020;-58
2023/09/10 02:10:02;;;;;;;8.18;6.78;;;410.00;2355.20;;;;;;5091421;28;20035;-59
2023/09/10 02:12:28;;;;;;;8.18;6.18;;;410.00;2355.20;;;;;;5091146;28;20079;-59
2023/09/10 02:14:55;;;;;;;9.82;7.30;;;410.10;2355.20;;;;;;5091086;28;20523;-58
2023/09/10 02:17:20;;;;;;;10.60;6.60;;;409.90;2355.20;;;;;;5090840;28;20024;-60
2023/09/10 02:19:46;;;;;;;10.05;7.10;;;409.90;2355.20;;;;;;5091422;28;20027;-58
2023/09/10 02:22:12;;;;;;;11.55;7.47;;;409.90;2355.20;;;;;;5090730;28;20530;-59
2023/09/10 02:24:37;;;;;;;11.45;7.55;;;409.90;2355.20;;;;;;5090568;28;20067;-58
2023/09/10 02:27:03;;;;;;;8.88;6.55;;;409.90;2355.20;;;;;;5090453;28;20166;-59
2023/09/10 02:29:29;;;;;;;10.55;7.63;;;409.90;2355.20;;;;;;5091287;28;20030;-58
2023/09/10 02:31:54;;;;;;;11.57;7.45;;;409.80;2355.20;;;;;;5090452;28;20028;-60
2023/09/10 02:34:20;;;;;;;15.40;8.48;;;409.80;2355.20;;;;;;5064526;28;20028;-58
2023/09/10 02:36:46;;;;;;;13.63;8.23;;;409.70;2355.20;;;;;;5090503;28;20111;-59
2023/09/10 02:39:11;;;;;;;10.02;7.47;;;409.70;2355.20;;;;;;5090471;28;20023;-59
2023/09/10 02:41:37;;;;;;;10.32;7.82;;;409.70;2355.20;;;;;;5089738;28;20409;-59
2023/09/10 02:44:03;;;;;;;8.85;7.85;;;409.60;2355.20;;;;;;5089988;28;20482;-58
2023/09/10 02:46:29;;;;;;;10.45;6.93;;;409.60;2355.20;;;;;;5090340;28;20024;-59
2023/09/10 02:48:55;;;;;;;8.75;6.68;;;409.60;2355.20;;;;;;5090445;28;20020;-59
2023/09/10 02:51:20;;;;;;;9.32;8.27;;;409.60;2355.20;;;;;;5090434;28;20089;-59
2023/09/10 02:53:48;;;;;;;9.88;6.75;;;409.60;2355.20;;;;;;5090502;28;20060;-58
2023/09/10 02:56:13;;;;;;;10.30;7.28;;;409.60;2355.20;;;;;;5090340;28;20024;-60
2023/09/10 02:58:39;;;;;;;8.23;6.72;;;409.60;2355.20;;;;;;5090381;28;20024;-59
2023/09/10 03:01:05;;;;;;;10.40;7.65;;;409.60;2355.20;;;;;;5089783;28;20024;-58
2023/09/10 03:03:34;;;;;;;9.60;6.97;;;384.90;2329.60;;;;;;5089905;28;20031;-59
2023/09/10 03:06:00;;;;;;;8.57;7.43;;;409.60;2355.20;;;;;;5090503;28;20035;-58
2023/09/10 03:08:26;;;;;;;9.70;7.25;;;409.60;2355.20;;;;;;5090301;28;20459;-59
2023/09/10 03:10:51;;;;;;;9.85;7.75;;;409.60;2355.20;;;;;;5089748;28;20048;-58
2023/09/10 03:13:17;;;;;;;10.30;7.70;;;384.90;2329.60;;;;;;5090193;28;20661;-59
2023/09/10 03:15:47;;;;;;;10.07;6.60;;;384.90;2329.60;;;;;;5089434;28;20534;-60
2023/09/10 03:18:13;;;;;;;7.70;6.80;;;384.90;2329.60;;;;;;5089832;28;20028;-59
2023/09/10 03:20:39;;;;;;;11.32;8.07;;;384.90;2329.60;;;;;;5089854;28;20028;-59
2023/09/10 03:23:06;;;;;;;10.43;6.78;;;384.90;2329.60;;;;;;5089573;28;20024;-58
2023/09/10 03:25:36;;;;;;;7.95;7.15;;;384.90;2329.60;;;;;;5089573;28;20101;-58
2023/09/10 03:28:02;;;;;;;8.95;6.38;;;384.90;2329.60;;;;;;5089334;28;20027;-59
2023/09/10 03:30:28;;;;;;;10.52;7.45;;;384.90;2329.60;;;;;;5089893;28;20028;-58
2023/09/10 03:32:53;;;;;;;9.40;7.65;;;384.80;2329.60;;;;;;5089403;28;20458;-58
2023/09/10 03:35:19;;;;;;;8.93;7.15;;;384.90;2329.60;;;;;;5089812;28;20024;-59
2023/09/10 03:37:45;;;;;;;12.82;8.00;;;384.90;2329.60;;;;;;5089675;28;20062;-58
2023/09/10 03:40:11;;;;;;;10.95;7.57;;;384.80;2329.60;;;;;;5089455;28;20093;-60
2023/09/10 03:42:37;;;;;;;11.27;7.85;;;384.80;2329.60;;;;;;5089529;28;20025;-59
2023/09/10 03:45:03;;;;;;;10.00;7.80;;;384.90;2329.60;;;;;;5089343;28;20046;-58
2023/09/10 03:47:29;;;;;;;10.20;7.85;;;384.80;2329.60;;;;;;5089439;28;20528;-58
2023/09/10 03:49:55;;;;;;;10.88;7.05;;;384.80;2329.60;;;;;;5087345;28;20043;-58
2023/09/10 03:52:21;;;;;;;9.85;6.93;;;384.70;2329.60;;;;;;5069105;28;20459;-58
2023/09/10 03:54:47;;;;;;;10.70;7.68;;;384.70;2329.60;;;;;;5084286;28;20355;-58
2023/09/10 03:57:14;;;;;;;11.10;8.30;;;384.70;2329.60;;;;;;5088996;28;20024;-59
2023/09/10 03:59:40;;;;;;;15.73;8.27;;;384.60;2329.60;;;;;;5088800;28;20048;-59
2023/09/10 04:02:06;;;;;;;10.20;7.28;;;384.60;2329.60;;;;;;5089255;28;20047;-58
2023/09/10 04:04:33;;;;;;;11.38;7.93;;;384.70;2329.60;;;;;;5088763;28;20032;-58
2023/09/10 04:06:58;;;;;;;9.25;7.30;;;384.50;2329.60;;;;;;5089070;28;20023;-58
2023/09/10 04:09:25;;;;;;;10.05;6.95;;;384.70;2329.60;;;;;;5088601;28;20035;-59
2023/09/10 04:11:51;;;;;;;13.40;7.75;;;384.70;2329.60;;;;;;5089031;28;20513;-58
2023/09/10 04:14:17;;;;;;;9.73;7.30;;;384.70;2329.60;;;;;;5088670;28;20428;-58
2023/09/10 04:16:43;;;;;;;9.90;7.13;;;384.70;2329.60;;;;;;5088756;28;20068;-59
2023/09/10 04:19:09;;;;;;;10.88;8.18;;;384.80;2329.60;;;;;;5088945;28;20145;-58
2023/09/10 04:21:34;;;;;;;15.07;8.15;;;384.90;2329.60;;;;;;5088577;28;20498;-58
2023/09/10 04:24:00;;;;;;;8.27;7.07;;;384.80;2329.60;;;;;;5088581;28;20389;-58
2023/09/10 04:26:26;;;;;;;12.30;7.45;;;384.90;2329.60;;;;;;5088726;28;20372;-58
2023/09/10 04:28:52;;;;;;;11.50;7.85;;;409.60;2355.20;;;;;;5088346;28;20073;-59
2023/09/10 04:31:18;;;;;;;9.43;7.40;;;409.60;2355.20;;;;;;5089167;28;20032;-59
2023/09/10 04:33:44;;;;;;;12.45;8.18;;;409.60;2355.20;;;;;;5075010;28;20081;-58
2023/09/10 04:36:09;;;;;;;8.82;6.90;;;409.80;2355.20;;;;;;5088697;28;20032;-59
2023/09/10 04:38:35;;;;;;;10.93;8.30;;;409.80;2355.20;;;;;;5088664;28;20031;-58
2023/09/10 04:41:01;;;;;;;12.20;8.25;;;409.70;2355.20;;;;;;5088634;28;20024;-58
2023/09/10 04:43:27;;;;;;;9.90;7.65;;;409.90;2355.20;;;;;;5075205;28;20083;-58
2023/09/10 04:45:53;;;;;;;10.13;7.43;;;410.10;2355.20;;;;;;5088493;28;20028;-58
2023/09/10 04:48:19;;;;;;;11.93;7.22;;;410.00;2355.20;;;;;;5088515;28;20024;-58
2023/09/10 04:50:45;;;;;;;10.57;6.85;;;410.00;2355.20;;;;;;5088434;28;20107;-59
2023/09/10 04:53:13;;;;;;;9.85;7.50;;;410.10;2355.20;;;;;;5088762;28;20028;-58
2023/09/10 04:55:38;;;;;;;10.70;7.40;;;410.20;2355.20;;;;;;5088669;28;20020;-59
2023/09/10 04:58:04;;;;;;;10.88;8.52;;;410.40;2355.20;;;;;;5088322;28;20031;-59
2023/09/10 05:00:30;;;;;;;9.13;7.88;;;410.50;2355.20;;;;;;5088499;28;20028;-58
2023/09/10 05:02:56;;;;;;;9.20;6.72;;;435.30;2355.20;;;;;;5088826;28;20376;-58
2023/09/10 05:05:22;;;;;;;10.85;7.22;;;435.40;2355.20;;;;;;5091158;28;20039;-58
2023/09/10 05:07:49;;;;;;;10.35;7.20;;;435.70;2355.20;;;;;;5092961;28;20065;-58
2023/09/10 05:10:15;;;;;;;17.40;6.80;;;435.90;2355.20;;;;;;5092279;28;20103;-59
2023/09/10 05:12:41;;;;;;;8.63;7.50;;;436.10;2355.20;;;;;;5092026;28;20394;-59
2023/09/10 05:15:07;;;;;;;9.98;7.32;;;460.90;2380.80;;;;;;5092732;28;20024;-58
2023/09/10 05:17:33;;;;;;;8.70;6.40;;;461.20;2380.80;;;;;;5092580;28;20374;-58
2023/09/10 05:20:00;;;;;;;9.45;7.20;;;461.30;2380.80;;;;;;5092679;28;20021;-58
2023/09/10 05:22:26;;;;;;;12.52;7.03;;;461.40;2380.80;;;;;;5091509;28;20490;-59
2023/09/10 05:24:51;;;;;;;11.38;8.07;;;461.40;2380.80;;;;;;5092281;28;20047;-59
2023/09/10 05:27:17;;;;;;;8.80;7.82;;;461.60;2380.80;;;;;;5092484;28;20091;-58
2023/09/10 05:29:44;;;;;;;10.25;8.30;;;486.40;2380.80;;;;;;5092007;28;20036;-63
2023/09/10 05:32:10;;;;;;;8.73;7.18;;;486.50;2380.80;;;;;;5092416;28;20031;-59
2023/09/10 05:34:36;;;;;;;10.93;7.78;;;486.70;2380.80;;;;;;5092080;28;20028;-60
2023/09/10 05:37:01;;;;;;;10.85;6.75;;;487.00;2380.80;;;;;;5091882;28;20467;-60
2023/09/10 05:39:27;;;;;;;9.63;7.75;;;512.10;2380.80;;;;;;5092090;28;20161;-59
2023/09/10 05:41:53;;;;;;;11.48;6.53;;;512.70;2380.80;;;;;;5091957;28;20035;-60
2023/09/10 05:44:19;;;;;;;10.35;7.70;;;512.90;2380.80;;;;;;5092230;28;20059;-59
2023/09/10 05:46:46;;;;;;;10.25;7.88;;;512.90;2380.80;;;;;;5092177;28;20028;-62
2023/09/10 05:49:12;;;;;;;9.35;6.97;;;512.60;2380.80;;;;;;5089974;28;20074;-60
2023/09/10 05:51:38;;;;;;;10.95;7.55;;;512.70;2380.80;;;;;;5080142;28;20027;-59
2023/09/10 05:54:04;;;;;;;8.48;7.15;;;512.90;2380.80;;;;;;5091488;28;20028;-59
2023/09/10 05:56:30;;;;;;;7.70;6.50;;;537.70;2406.40;;;;;;5091925;28;20023;-59
2023/09/10 05:58:55;;;;;;;9.13;6.72;;;538.00;2406.40;;;;;;5091483;28;20077;-63
2023/09/10 06:01:21;;;;;;;7.57;6.78;;;563.70;2432.00;;;;;;5091534;28;20039;-58
2023/09/10 06:03:47;;;;;;;8.05;6.90;;;640.60;2304.00;;;;;;5089672;28;20429;-59
2023/09/10 06:06:12;;;;;;;9.98;7.60;;;717.20;2022.40;;;;;;5091815;28;20024;-59
2023/09/10 06:08:38;;;;;;;7.50;6.80;;;768.10;1766.40;;;;;;5078807;28;20427;-63
2023/09/10 06:11:04;;;;;;;11.45;7.53;;;794.20;1689.60;;;;;;5077602;28;20093;-61
2023/09/10 06:13:30;;;;;;;8.38;7.00;;;820.10;1612.80;;;;;;5091703;28;20043;-59
2023/09/10 06:15:57;;;;;;;8.20;7.40;;;871.10;1484.80;;;;;;5090467;28;20146;-65
2023/09/10 06:18:23;;;;;;;12.07;7.75;;;921.60;1433.60;;;;;;5091324;28;20047;-61
2023/09/10 06:20:48;;;;;;;8.27;7.57;;;922.50;1382.40;;;;;;5091035;28;20471;-59
2023/09/10 06:23:14;;;;;;;8.80;7.90;;;922.10;1382.40;;;;;;5091745;28;20096;-67
2023/09/10 06:25:40;;;;;;;8.40;7.60;;;921.80;1382.40;;;;;;5091254;28;20390;-62
2023/09/10 06:28:06;;;;;;;8.85;8.02;;;948.00;1305.60;;;;;;5091544;28;20016;-61
2023/09/10 06:30:32;;;;;;;8.73;7.93;;;973.30;1280.00;;;;;;5091326;28;20031;-64
2023/09/10 06:32:58;;;;;;;8.27;7.47;;;973.00;1280.00;;;;;;5091409;28;20015;-62
2023/09/10 06:35:25;;;;;;;10.35;9.45;;;998.40;1280.00;;;;;;5090621;28;20159;-62
2023/09/10 06:37:51;;;;;;;9.88;8.35;;;973.70;1228.80;;;;;;5077282;28;20387;-62
2023/09/10 06:40:16;;;;;;;10.55;9.60;;;947.20;1305.60;;;;;;5091117;28;20024;-63
2023/09/10 06:42:43;;;;;;;10.10;9.23;;;922.30;1331.20;;;;;;5086206;28;20407;-71
2023/09/10 06:45:09;;;;;;;9.90;9.00;;;896.90;1331.20;;;;;;5081811;28;20058;-60
2023/09/10 06:47:35;;;;;;;10.23;9.13;;;922.30;1356.80;;;;;;5090310;28;20458;-67
2023/09/10 06:50:01;;;;;;;10.35;9.32;;;922.50;1331.20;;;;;;5076922;28;20388;-61
2023/09/10 06:52:27;;;;;;;11.07;9.95;;;947.70;1305.60;;;;;;5088918;28;20490;-62
2023/09/10 06:54:52;;;;;;;10.43;9.52;;;947.40;1305.60;;;;;;5077235;28;20097;-61
2023/09/10 06:57:18;;;;;;;11.95;10.90;;;948.00;1305.60;;;;;;5070316;28;20024;-73
2023/09/10 06:59:44;;;;;;;12.27;11.18;;;998.50;1280.00;;;;;;5083358;28;20020;-61
2023/09/10 07:02:09;;;;;;;11.05;10.15;;;998.80;1254.40;;;;;;5090600;28;20032;-62
2023/09/10 07:04:35;;;;;;;11.73;10.68;;;1049.90;1203.20;;;;;;5077149;28;20462;-61
2023/09/10 07:07:01;;;;;;;12.57;11.43;;;1075.40;1177.60;;;;;;5090206;28;20020;-62
2023/09/10 07:09:27;;;;;;;12.23;11.02;;;1024.90;1177.60;;;;;;5090372;28;20027;-62
2023/09/10 07:11:54;;;;;;;12.77;11.57;;;1075.30;1152.00;;;;;;5090282;28;20047;-61
2023/09/10 07:14:21;;;;;;;12.40;11.32;;;1075.30;1152.00;;;;;;5090602;28;20021;-61
2023/09/10 07:16:47;;;;;;;12.88;11.75;;;1049.70;1177.60;;;;;;5090533;28;20024;-63
2023/09/10 07:19:14;;;;;;;13.68;12.57;;;1024.00;1203.20;;;;;;5089744;28;20036;-62
2023/09/10 07:21:40;;;;;;;14.13;12.82;;;999.20;1203.20;;;;;;5077998;28;20036;-59
2023/09/10 07:24:06;;;;;;;14.18;12.70;;;998.90;1177.60;;;;;;5088537;28;20363;-59
2023/09/10 07:26:39;;;;;;;13.63;12.02;;;973.30;1203.20;;;;;;5089799;28;20542;-60
2023/09/10 07:29:06;;;;;;;13.18;12.18;;;998.50;1203.20;;;;;;5089987;28;20081;-60
2023/09/10 07:31:33;;;;;;;12.80;11.90;;;998.60;1203.20;;;;;;5087523;28;20024;-63
2023/09/10 07:34:00;;;;;;;13.38;12.48;;;998.70;1228.80;;;;;;5075755;28;20035;-70
2023/09/10 07:36:25;;;;;;;12.23;11.32;;;1024.40;1152.00;;;;;;5069923;28;20367;-65
2023/09/10 07:38:52;;;;;;;13.40;11.45;;;1024.60;1152.00;;;;;;5085687;28;20035;-59
2023/09/10 07:41:17;;;;;;;13.18;11.90;;;999.30;1177.60;;;;;;5090149;28;20024;-72
2023/09/10 07:43:43;;;;;;;13.90;12.88;;;1024.60;1126.40;;;;;;5088942;28;20378;-64
2023/09/10 07:46:09;;;;;;;12.68;11.63;;;999.20;1152.00;;;;;;5086629;28;20110;-70
2023/09/10 07:48:35;;;;;;;16.08;14.75;;;1049.70;1126.40;;;;;;5077236;28;20035;-62
2023/09/10 07:51:01;;;;;;;13.27;12.15;;;1024.50;1152.00;;;;;;5089786;28;20095;-59
2023/09/10 07:53:26;;;;;;;13.20;12.20;;;1024.60;1152.00;;;;;;5090110;28;20573;-60
2023/09/10 07:55:52;;;;;;;13.38;12.10;;;1024.70;1126.40;;;;;;5089324;28;20043;-60
2023/09/10 07:58:18;;;;;;;14.80;13.52;;;999.00;1152.00;;;;;;5089703;28;20056;-66
2023/09/10 08:00:44;;;;;;;13.90;12.80;;;1050.00;1126.40;;;;;;5089528;28;20027;-64
2023/09/10 08:03:11;;;;;;;13.18;12.10;;;1024.50;1126.40;;;;;;5089339;28;20386;-65
2023/09/10 08:05:37;;;;;;;14.70;13.15;;;998.80;1177.60;;;;;;5089364;28;20474;-65
2023/09/10 08:08:03;;;;;;;13.85;12.75;;;998.60;1177.60;;;;;;5089362;28;20077;-67
2023/09/10 08:10:30;;;;;;;13.07;11.70;;;1024.10;1152.00;;;;;;5088807;28;20016;-68
2023/09/10 08:12:56;;;;;;;12.32;11.35;;;1049.90;1126.40;;;;;;5088984;28;20536;-63
2023/09/10 08:15:21;;;;;;;13.25;11.60;;;998.80;1152.00;;;;;;5089359;28;20032;-63
2023/09/10 08:17:51;;;;;;;13.32;12.13;;;1049.60;1126.40;;;;;;5088873;28;20055;-64
2023/09/10 08:20:17;;;;;;;13.55;12.32;;;1075.90;1049.60;;;;;;5089166;28;20024;-66
2023/09/10 08:22:45;;;;;;;15.18;12.98;;;1101.10;1049.60;;;;;;5088676;28;20030;-64
2023/09/10 08:25:13;;;;;;;12.48;11.48;;;1126.90;1024.00;;;;;;5089222;28;20575;-68
2023/09/10 08:27:39;;;;;;;12.25;11.27;;;1126.60;998.40;;;;;;5089187;28;20452;-64
2023/09/10 08:30:06;;;;;;;12.35;11.30;;;1100.90;998.40;;;;;;5088999;28;20028;-67
2023/09/10 08:32:33;;;;;;;12.07;11.02;;;1075.90;972.80;;;;;;5088903;28;20489;-67
2023/09/10 08:34:59;;;;;;;12.43;11.43;;;1050.20;1024.00;;;;;;5089346;28;20024;-64
2023/09/10 08:37:25;;;;;;;12.82;11.88;;;1024.40;1075.20;;;;;;5088844;28;20024;-68
2023/09/10 08:39:50;;;;;;;12.75;11.02;;;1050.20;1024.00;;;;;;5088368;28;20077;-66
2023/09/10 08:42:16;;;;;;;12.35;11.35;;;1050.10;1024.00;;;;;;5083826;28;20032;-67
2023/09/10 08:44:44;;;;;;;11.10;10.32;;;1024.30;1075.20;;;;;;5080552;28;20370;-68
2023/09/10 08:47:13;;;;;;;12.00;11.10;;;972.90;1126.40;;;;;;5088925;28;20043;-69
2023/09/10 08:49:42;;;;;;;12.30;11.35;;;973.70;1100.80;;;;;;5087475;28;20501;-67
2023/09/10 08:52:09;;;;;;;11.27;10.18;;;998.60;1126.40;;;;;;5088657;28;20028;-63
2023/09/10 08:54:34;;;;;;;10.63;7.85;;;947.90;1152.00;;;;;;5088457;28;20509;-66
2023/09/10 08:57:01;;;;;;;7.53;6.72;;;896.90;1177.60;;;;;;5088413;28;20012;-62
2023/09/10 08:59:29;;;;;;;9.88;7.20;;;870.90;1228.80;;;;;;5088801;28;20389;-67
2023/09/10 09:01:56;;;;;;;7.35;6.65;;;870.70;1254.40;;;;;;5088710;28;20035;-66
2023/09/10 09:04:23;;;;;;;9.30;8.15;;;870.50;1254.40;;;;;;5088092;28;20024;-63
2023/09/10 09:06:55;;;;;;;10.60;7.40;;;845.60;1254.40;;;;;;5088306;28;20103;-66
2023/09/10 09:09:24;;;;;;;11.25;7.57;;;819.80;1305.60;;;;;;5088472;28;20038;-64
2023/09/10 09:11:54;;;;;;;11.38;8.18;;;819.60;1356.80;;;;;;5088618;28;20130;-67
2023/09/10 09:14:21;;;;;;;10.15;7.82;;;820.10;1331.20;;;;;;5088461;28;20048;-62
2023/09/10 09:16:47;;;;;;;8.05;7.25;;;794.20;1382.40;;;;;;5088742;28;20532;-59
2023/09/10 09:19:15;;;;;;;10.05;7.97;;;794.10;1408.00;;;;;;5088106;28;20074;-61
2023/09/10 09:21:44;;;;;;;9.13;8.02;;;793.90;1433.60;;;;;;5088661;28;20028;-69
2023/09/10 09:24:12;;;;;;;11.88;7.43;;;794.20;1382.40;;;;;;5088070;28;20044;-63
2023/09/10 09:26:39;;;;;;;10.95;7.68;;;794.10;1408.00;;;;;;5088975;28;20106;-62
2023/09/10 09:29:07;;;;;;;9.50;6.82;;;794.00;1433.60;;;;;;5088172;28;20040;-63
2023/09/10 09:31:32;;;;;;;8.85;7.95;;;793.90;1433.60;;;;;;5088255;28;20032;-64
2023/09/10 09:33:58;;;;;;;7.45;6.72;;;794.20;1433.60;;;;;;5088260;28;20031;-62
2023/09/10 09:36:28;;;;;;;9.93;7.03;;;794.00;1408.00;;;;;;5088850;28;20020;-64
2023/09/10 09:38:54;;;;;;;11.35;6.82;;;794.00;1433.60;;;;;;5088298;28;20490;-60
2023/09/10 09:41:20;;;;;;;10.77;6.80;;;794.20;1408.00;;;;;;5088411;28;20028;-72
2023/09/10 09:43:46;;;;;;;8.68;6.85;;;794.40;1433.60;;;;;;5088119;28;20061;-67
2023/09/10 09:46:12;;;;;;;10.02;7.20;;;794.20;1382.40;;;;;;5088480;28;20028;-64
2023/09/10 09:48:38;;;;;;;8.40;7.20;;;793.60;1382.40;;;;;;5088349;28;20016;-64
2023/09/10 09:51:04;;;;;;;8.27;6.68;;;768.90;1356.80;;;;;;5090079;28;20466;-64
2023/09/10 09:53:32;;;;;;;11.93;6.20;;;768.20;1408.00;;;;;;5091905;28;20347;-61
2023/09/10 09:56:03;;;;;;;6.75;5.57;;;768.60;1382.40;;;;;;5090844;28;20056;-64
2023/09/10 09:58:29;;;;;;;11.52;6.45;;;793.70;1433.60;;;;;;5091842;28;20028;-67
2023/09/10 10:00:59;;;;;;;8.30;7.00;;;768.80;1408.00;;;;;;5091858;28;20095;-66
2023/09/10 10:03:25;;;;;;;8.60;6.57;;;793.60;1408.00;;;;;;5091461;28;20421;-65
2023/09/10 10:05:52;;;;;;;6.97;6.38;;;768.70;1408.00;;;;;;5091590;28;20158;-63
2023/09/10 10:08:23;;;;;;;9.82;6.70;;;793.60;1408.00;;;;;;5091882;28;20038;-65
2023/09/10 10:10:49;;;;;;;8.18;6.50;;;768.60;1408.00;;;;;;5091111;28;20040;-63
2023/09/10 10:13:18;;;;;;;8.30;6.28;;;768.40;1408.00;;;;;;5091386;28;20023;-60
2023/09/10 10:15:48;;;;;;;7.22;6.45;;;768.00;1408.00;;;;;;5091674;28;20450;-62
2023/09/10 10:18:15;;;;;;;7.95;5.63;;;768.20;1408.00;;;;;;5091208;28;20024;-68
2023/09/10 10:20:46;;;;;;;9.45;6.38;;;768.20;1408.00;;;;;;5091403;28;20020;-62
2023/09/10 10:23:13;;;;;;;7.82;6.97;;;743.30;1433.60;;;;;;5091534;28;20074;-62
2023/09/10 10:25:41;;;;;;;6.55;5.80;;;743.30;1433.60;;;;;;5091009;28;20040;-61
2023/09/10 10:28:11;;;;;;;8.90;5.80;;;743.30;1433.60;;;;;;5091191;28;20430;-60
2023/09/10 10:31:15;;;;;;;14.43;6.47;;;742.90;1433.60;;;;;;5091275;28;20032;-70
2023/09/10 10:33:50;;;;;;;7.20;5.82;;;743.10;1459.20;;;;;;5086792;28;20115;-64
2023/09/10 10:36:40;;;;;;;9.13;5.78;;;743.30;1433.60;;;;;;5091244;28;20031;-66
2023/09/10 10:39:09;;;;;;;12.85;6.45;;;768.00;1433.60;;;;;;5090955;28;20012;-62
2023/09/10 10:41:40;;;;;;;7.90;5.25;;;742.90;1459.20;;;;;;5091012;28;20027;-72
2023/09/10 10:44:21;;;;;;;9.70;6.43;;;743.20;1459.20;;;;;;5091260;28;20040;-72
2023/09/10 10:46:53;;;;;;;8.00;5.68;;;743.30;1459.20;;;;;;5091256;28;20082;-66
2023/09/10 10:49:20;;;;;;;8.93;6.43;;;768.10;1433.60;;;;;;5081700;28;20100;-63
2023/09/10 10:51:50;;;;;;;8.80;6.45;;;768.40;1433.60;;;;;;5074292;28;20025;-63
2023/09/10 10:54:16;;;;;;;12.32;6.47;;;768.10;1433.60;;;;;;5074410;28;20108;-64
2023/09/10 10:56:42;;;;;;;12.20;6.25;;;768.40;1433.60;;;;;;5074335;28;20078;-65
2023/09/10 10:59:08;;;;;;;7.63;5.90;;;743.30;1433.60;;;;;;5074294;28;20060;-64
2023/09/10 11:01:34;;;;;;;8.55;5.65;;;743.30;1459.20;;;;;;5074085;28;20036;-70
2023/09/10 11:04:18;;;;;;;8.80;6.03;;;743.30;1459.20;;;;;;5074120;28;20028;-71
2023/09/10 11:07:22;;;;;;;10.13;6.20;;;743.30;1433.60;;;;;;5074406;28;20029;-70
2023/09/10 11:09:48;;;;;;;7.28;5.78;;;768.00;1459.20;;;;;;5074496;28;20454;-71
2023/09/10 11:12:15;;;;;;;10.15;5.95;;;768.20;1433.60;;;;;;5074150;28;20071;-71
2023/09/10 11:14:59;;;;;;;6.60;5.90;;;743.30;1408.00;;;;;;5074185;28;20028;-71
2023/09/10 11:17:31;;;;;;;13.88;5.88;;;768.00;1433.60;;;;;;5074179;28;20103;-69
2023/09/10 11:19:58;;;;;;;8.57;6.55;;;768.10;1433.60;;;;;;5074743;28;20025;-65
2023/09/10 11:22:23;;;;;;;6.88;5.07;;;768.40;1459.20;;;;;;5073570;28;20045;-61
2023/09/10 11:25:06;;;;;;;8.10;5.35;;;768.30;1382.40;;;;;;5073797;28;20036;-67
2023/09/10 11:27:33;;;;;;;8.70;5.83;;;768.40;1408.00;;;;;;5074069;28;20031;-61
2023/09/10 11:30:13;;;;;;;6.68;5.32;;;768.40;1382.40;;;;;;5074532;28;20020;-66
2023/09/10 11:32:40;;;;;;;6.85;5.05;;;768.40;1433.60;;;;;;5073693;28;20540;-66
2023/09/10 11:35:18;;;;;;;7.75;5.50;;;768.60;1433.60;;;;;;5073635;28;20025;-62
2023/09/10 11:37:52;;;;;;;6.65;5.45;;;768.30;1408.00;;;;;;5073773;28;20382;-66
2023/09/10 11:40:20;;;;;;;8.63;5.35;;;768.60;1382.40;;;;;;5073875;28;20074;-63
2023/09/10 11:42:47;;;;;;;8.73;5.00;;;768.20;1331.20;;;;;;5073744;28;20022;-61
2023/09/10 11:45:13;;;;;;;7.30;5.40;;;743.30;1331.20;;;;;;5073274;28;20119;-67
2023/09/10 11:47:44;;;;;;;5.57;4.88;;;743.30;1356.80;;;;;;5073724;28;20017;-62
2023/09/10 11:50:12;;;;;;;7.45;5.13;;;768.00;1356.80;;;;;;5073710;28;20020;-66
2023/09/10 11:52:39;;;;;;;10.75;6.57;;;768.10;1331.20;;;;;;5073339;28;20048;-68
2023/09/10 11:55:09;;;;;;;9.00;5.45;;;768.30;1382.40;;;;;;5073287;28;20036;-66
2023/09/10 11:57:35;;;;;;;7.43;5.40;;;768.30;1331.20;;;;;;5073476;28;20028;-61
2023/09/10 12:00:02;;;;;;;8.00;4.90;;;768.40;1305.60;;;;;;5073530;28;20025;-61
2023/09/10 12:02:28;;;;;;;8.27;5.07;;;768.40;1305.60;;;;;;5074249;28;20024;-67
2023/09/10 12:04:54;;;;;;;6.03;5.10;;;768.40;1305.60;;;;;;5073052;28;20478;-66
2023/09/10 12:07:19;;;;;;;9.23;5.10;;;768.60;1331.20;;;;;;5073326;28;20029;-67
2023/09/10 12:09:45;;;;;;;6.70;4.80;;;768.30;1280.00;;;;;;5073169;28;20021;-66
2023/09/10 12:12:23;;;;;;;7.82;4.97;;;768.40;1356.80;;;;;;5072833;28;20077;-64